sensor_id;sensor_type;location;lat;lon;timestamp;P1;durP1;ratioP1;P2;durP2;ratioP2
66085;SDS011;52868;49.758;9.586;2022-11-15T00:01:29;14.30;;;6.10;;
66085;SDS011;52868;49.758;9.586;2022-11-15T00:03:54;15.70;;;6.25;;
66085;SDS011;52868;49.758;9.586;2022-11-15T00:06:20;15.23;;;5.93;;
66085;SDS011;52868;49.758;9.586;2022-11-15T00:08:46;23.13;;;6.70;;
66085;SDS011;52868;49.758;9.586;2022-11-15T00:11:11;17.67;;;6.65;;
66085;SDS011;52868;49.758;9.586;2022-11-15T00:13:38;18.35;;;6.65;;
66085;SDS011;52868;49.758;9.586;2022-11-15T00:16:04;16.50;;;6.45;;
66085;SDS011;52868;49.758;9.586;2022-11-15T00:18:31;16.52;;;7.10;;
66085;SDS011;52868;49.758;9.586;2022-11-15T00:21:02;16.67;;;6.88;;
66085;SDS011;52868;49.758;9.586;2022-11-15T00:23:33;17.23;;;7.30;;
66085;SDS011;52868;49.758;9.586;2022-11-15T00:25:59;17.13;;;6.82;;
66085;SDS011;52868;49.758;9.586;2022-11-15T00:28:25;22.90;;;7.25;;
66085;SDS011;52868;49.758;9.586;2022-11-15T00:30:51;24.48;;;8.30;;
66085;SDS011;52868;49.758;9.586;2022-11-15T00:33:17;18.25;;;7.18;;
66085;SDS011;52868;49.758;9.586;2022-11-15T00:35:43;16.98;;;7.10;;
66085;SDS011;52868;49.758;9.586;2022-11-15T00:38:08;19.20;;;6.75;;
66085;SDS011;52868;49.758;9.586;2022-11-15T00:40:34;18.63;;;7.05;;
66085;SDS011;52868;49.758;9.586;2022-11-15T00:43:00;15.35;;;5.90;;
66085;SDS011;52868;49.758;9.586;2022-11-15T00:45:25;16.33;;;5.72;;
66085;SDS011;52868;49.758;9.586;2022-11-15T00:47:51;16.25;;;6.78;;
66085;SDS011;52868;49.758;9.586;2022-11-15T00:50:17;15.13;;;6.75;;
66085;SDS011;52868;49.758;9.586;2022-11-15T00:52:43;15.80;;;5.72;;
66085;SDS011;52868;49.758;9.586;2022-11-15T00:55:16;17.27;;;5.60;;
66085;SDS011;52868;49.758;9.586;2022-11-15T00:57:42;17.08;;;6.28;;
66085;SDS011;52868;49.758;9.586;2022-11-15T01:00:08;13.98;;;5.88;;
66085;SDS011;52868;49.758;9.586;2022-11-15T01:02:35;15.77;;;6.03;;
66085;SDS011;52868;49.758;9.586;2022-11-15T01:05:00;14.43;;;6.57;;
66085;SDS011;52868;49.758;9.586;2022-11-15T01:07:26;18.65;;;6.25;;
66085;SDS011;52868;49.758;9.586;2022-11-15T01:09:52;12.65;;;5.65;;
66085;SDS011;52868;49.758;9.586;2022-11-15T01:12:17;11.90;;;5.50;;
66085;SDS011;52868;49.758;9.586;2022-11-15T01:14:43;15.45;;;6.05;;
66085;SDS011;52868;49.758;9.586;2022-11-15T01:17:08;16.48;;;7.05;;
66085;SDS011;52868;49.758;9.586;2022-11-15T01:19:34;13.20;;;5.75;;
66085;SDS011;52868;49.758;9.586;2022-11-15T01:22:00;16.20;;;6.00;;
66085;SDS011;52868;49.758;9.586;2022-11-15T01:24:25;20.08;;;6.03;;
66085;SDS011;52868;49.758;9.586;2022-11-15T01:26:51;14.07;;;6.47;;
66085;SDS011;52868;49.758;9.586;2022-11-15T01:29:17;17.92;;;6.70;;
66085;SDS011;52868;49.758;9.586;2022-11-15T01:31:42;17.48;;;6.47;;
66085;SDS011;52868;49.758;9.586;2022-11-15T01:34:08;13.43;;;5.90;;
66085;SDS011;52868;49.758;9.586;2022-11-15T01:36:33;19.67;;;5.68;;
66085;SDS011;52868;49.758;9.586;2022-11-15T01:38:59;18.10;;;6.47;;
66085;SDS011;52868;49.758;9.586;2022-11-15T01:41:26;13.90;;;6.53;;
66085;SDS011;52868;49.758;9.586;2022-11-15T01:43:55;15.07;;;6.28;;
66085;SDS011;52868;49.758;9.586;2022-11-15T01:46:33;12.13;;;5.78;;
66085;SDS011;52868;49.758;9.586;2022-11-15T01:49:01;16.35;;;5.82;;
66085;SDS011;52868;49.758;9.586;2022-11-15T01:51:31;12.85;;;5.82;;
66085;SDS011;52868;49.758;9.586;2022-11-15T01:54:05;9.73;;;5.40;;
66085;SDS011;52868;49.758;9.586;2022-11-15T01:56:40;10.43;;;5.45;;
66085;SDS011;52868;49.758;9.586;2022-11-15T01:59:11;14.45;;;6.13;;
66085;SDS011;52868;49.758;9.586;2022-11-15T02:01:37;16.50;;;6.22;;
66085;SDS011;52868;49.758;9.586;2022-11-15T02:04:16;13.05;;;5.57;;
66085;SDS011;52868;49.758;9.586;2022-11-15T02:06:49;12.02;;;5.13;;
66085;SDS011;52868;49.758;9.586;2022-11-15T02:09:15;17.27;;;5.90;;
66085;SDS011;52868;49.758;9.586;2022-11-15T02:11:42;13.25;;;5.30;;
66085;SDS011;52868;49.758;9.586;2022-11-15T02:14:09;14.25;;;5.40;;
66085;SDS011;52868;49.758;9.586;2022-11-15T02:32:58;14.55;;;5.22;;
66085;SDS011;52868;49.758;9.586;2022-11-15T02:35:59;10.98;;;4.85;;
66085;SDS011;52868;49.758;9.586;2022-11-15T02:38:30;12.35;;;5.50;;
66085;SDS011;52868;49.758;9.586;2022-11-15T02:41:24;12.88;;;5.70;;
66085;SDS011;52868;49.758;9.586;2022-11-15T02:44:09;13.15;;;6.05;;
66085;SDS011;52868;49.758;9.586;2022-11-15T02:46:57;10.77;;;5.28;;
66085;SDS011;52868;49.758;9.586;2022-11-15T02:49:39;10.68;;;4.88;;
66085;SDS011;52868;49.758;9.586;2022-11-15T02:52:13;16.20;;;5.13;;
66085;SDS011;52868;49.758;9.586;2022-11-15T02:54:52;12.63;;;5.25;;
66085;SDS011;52868;49.758;9.586;2022-11-15T02:57:20;11.45;;;5.30;;
66085;SDS011;52868;49.758;9.586;2022-11-15T03:00:05;12.48;;;5.38;;
66085;SDS011;52868;49.758;9.586;2022-11-15T03:05:25;9.52;;;4.13;;
66085;SDS011;52868;49.758;9.586;2022-11-15T03:08:08;8.48;;;4.40;;
66085;SDS011;52868;49.758;9.586;2022-11-15T03:10:46;9.30;;;4.28;;
66085;SDS011;52868;49.758;9.586;2022-11-15T03:13:36;10.38;;;4.95;;
66085;SDS011;52868;49.758;9.586;2022-11-15T03:16:17;11.43;;;4.97;;
66085;SDS011;52868;49.758;9.586;2022-11-15T03:19:04;10.32;;;4.57;;
66085;SDS011;52868;49.758;9.586;2022-11-15T03:21:39;7.97;;;4.28;;
66085;SDS011;52868;49.758;9.586;2022-11-15T03:24:05;10.35;;;4.28;;
66085;SDS011;52868;49.758;9.586;2022-11-15T03:26:33;11.25;;;4.40;;
66085;SDS011;52868;49.758;9.586;2022-11-15T03:29:06;10.17;;;4.27;;
66085;SDS011;52868;49.758;9.586;2022-11-15T03:31:40;9.55;;;4.03;;
66085;SDS011;52868;49.758;9.586;2022-11-15T03:34:19;9.50;;;4.60;;
66085;SDS011;52868;49.758;9.586;2022-11-15T03:36:54;11.80;;;3.65;;
66085;SDS011;52868;49.758;9.586;2022-11-15T03:39:20;10.02;;;4.53;;
66085;SDS011;52868;49.758;9.586;2022-11-15T03:41:56;12.93;;;4.28;;
66085;SDS011;52868;49.758;9.586;2022-11-15T03:49:53;7.28;;;3.65;;
66085;SDS011;52868;49.758;9.586;2022-11-15T03:52:33;11.02;;;3.72;;
66085;SDS011;52868;49.758;9.586;2022-11-15T03:55:00;8.75;;;3.70;;
66085;SDS011;52868;49.758;9.586;2022-11-15T03:57:27;6.45;;;3.30;;
66085;SDS011;52868;49.758;9.586;2022-11-15T03:59:53;6.43;;;3.17;;
66085;SDS011;52868;49.758;9.586;2022-11-15T04:02:18;6.80;;;3.33;;
66085;SDS011;52868;49.758;9.586;2022-11-15T04:04:44;6.25;;;3.03;;
66085;SDS011;52868;49.758;9.586;2022-11-15T04:07:10;7.68;;;3.08;;
66085;SDS011;52868;49.758;9.586;2022-11-15T04:09:36;8.75;;;3.75;;
66085;SDS011;52868;49.758;9.586;2022-11-15T04:12:22;9.23;;;3.05;;
66085;SDS011;52868;49.758;9.586;2022-11-15T04:15:16;7.22;;;3.13;;
66085;SDS011;52868;49.758;9.586;2022-11-15T04:21:24;11.05;;;3.33;;
66085;SDS011;52868;49.758;9.586;2022-11-15T04:24:08;8.27;;;3.72;;
66085;SDS011;52868;49.758;9.586;2022-11-15T04:26:39;6.40;;;3.40;;
66085;SDS011;52868;49.758;9.586;2022-11-15T04:29:05;9.63;;;3.17;;
66085;SDS011;52868;49.758;9.586;2022-11-15T04:31:49;9.20;;;3.97;;
66085;SDS011;52868;49.758;9.586;2022-11-15T04:34:15;9.50;;;4.45;;
66085;SDS011;52868;49.758;9.586;2022-11-15T04:36:43;7.43;;;3.88;;
66085;SDS011;52868;49.758;9.586;2022-11-15T04:39:28;8.15;;;3.90;;
66085;SDS011;52868;49.758;9.586;2022-11-15T04:41:53;10.98;;;4.45;;
66085;SDS011;52868;49.758;9.586;2022-11-15T04:44:19;12.60;;;4.18;;
66085;SDS011;52868;49.758;9.586;2022-11-15T04:46:44;13.48;;;4.63;;
66085;SDS011;52868;49.758;9.586;2022-11-15T04:49:10;11.02;;;4.68;;
66085;SDS011;52868;49.758;9.586;2022-11-15T04:51:36;10.02;;;4.50;;
66085;SDS011;52868;49.758;9.586;2022-11-15T04:54:01;8.57;;;4.28;;
66085;SDS011;52868;49.758;9.586;2022-11-15T04:56:27;12.98;;;4.82;;
66085;SDS011;52868;49.758;9.586;2022-11-15T04:58:52;9.38;;;4.35;;
66085;SDS011;52868;49.758;9.586;2022-11-15T05:01:18;7.75;;;3.80;;
66085;SDS011;52868;49.758;9.586;2022-11-15T05:03:44;8.32;;;3.90;;
66085;SDS011;52868;49.758;9.586;2022-11-15T05:06:28;8.55;;;3.85;;
66085;SDS011;52868;49.758;9.586;2022-11-15T05:08:54;8.77;;;3.60;;
66085;SDS011;52868;49.758;9.586;2022-11-15T05:11:21;7.22;;;3.13;;
66085;SDS011;52868;49.758;9.586;2022-11-15T05:13:47;6.93;;;3.72;;
66085;SDS011;52868;49.758;9.586;2022-11-15T05:16:13;11.77;;;3.80;;
66085;SDS011;52868;49.758;9.586;2022-11-15T05:18:39;6.80;;;3.25;;
66085;SDS011;52868;49.758;9.586;2022-11-15T05:21:12;10.60;;;4.07;;
66085;SDS011;52868;49.758;9.586;2022-11-15T05:23:39;11.43;;;4.10;;
66085;SDS011;52868;49.758;9.586;2022-11-15T05:26:06;8.65;;;3.83;;
66085;SDS011;52868;49.758;9.586;2022-11-15T05:28:32;9.18;;;3.45;;
66085;SDS011;52868;49.758;9.586;2022-11-15T05:31:02;7.90;;;3.85;;
66085;SDS011;52868;49.758;9.586;2022-11-15T05:33:29;7.35;;;3.35;;
66085;SDS011;52868;49.758;9.586;2022-11-15T05:35:57;8.75;;;3.65;;
66085;SDS011;52868;49.758;9.586;2022-11-15T05:38:29;7.10;;;3.47;;
66085;SDS011;52868;49.758;9.586;2022-11-15T05:40:55;8.30;;;3.25;;
66085;SDS011;52868;49.758;9.586;2022-11-15T05:43:21;9.93;;;3.38;;
66085;SDS011;52868;49.758;9.586;2022-11-15T05:45:47;6.90;;;3.25;;
66085;SDS011;52868;49.758;9.586;2022-11-15T05:48:13;4.70;;;2.58;;
66085;SDS011;52868;49.758;9.586;2022-11-15T05:50:40;6.88;;;3.60;;
66085;SDS011;52868;49.758;9.586;2022-11-15T05:53:08;14.38;;;4.65;;
66085;SDS011;52868;49.758;9.586;2022-11-15T05:58:03;17.10;;;4.95;;
66085;SDS011;52868;49.758;9.586;2022-11-15T06:00:29;9.50;;;4.22;;
66085;SDS011;52868;49.758;9.586;2022-11-15T06:02:55;11.68;;;5.30;;
66085;SDS011;52868;49.758;9.586;2022-11-15T06:05:20;11.10;;;4.38;;
66085;SDS011;52868;49.758;9.586;2022-11-15T06:07:46;12.35;;;4.50;;
66085;SDS011;52868;49.758;9.586;2022-11-15T06:10:11;19.58;;;5.72;;
66085;SDS011;52868;49.758;9.586;2022-11-15T06:12:37;17.60;;;5.00;;
66085;SDS011;52868;49.758;9.586;2022-11-15T06:15:03;11.43;;;4.82;;
66085;SDS011;52868;49.758;9.586;2022-11-15T06:17:29;16.40;;;5.80;;
66085;SDS011;52868;49.758;9.586;2022-11-15T06:19:54;15.05;;;6.43;;
66085;SDS011;52868;49.758;9.586;2022-11-15T06:22:20;20.50;;;7.68;;
66085;SDS011;52868;49.758;9.586;2022-11-15T06:24:45;16.35;;;6.95;;
66085;SDS011;52868;49.758;9.586;2022-11-15T06:27:11;14.45;;;6.80;;
66085;SDS011;52868;49.758;9.586;2022-11-15T06:29:37;14.13;;;5.72;;
66085;SDS011;52868;49.758;9.586;2022-11-15T06:32:03;19.17;;;6.70;;
66085;SDS011;52868;49.758;9.586;2022-11-15T06:34:28;13.68;;;5.63;;
66085;SDS011;52868;49.758;9.586;2022-11-15T06:36:54;16.85;;;6.55;;
66085;SDS011;52868;49.758;9.586;2022-11-15T06:39:20;17.42;;;5.85;;
66085;SDS011;52868;49.758;9.586;2022-11-15T06:41:45;11.73;;;5.68;;
66085;SDS011;52868;49.758;9.586;2022-11-15T06:44:11;21.63;;;6.82;;
66085;SDS011;52868;49.758;9.586;2022-11-15T06:46:37;14.38;;;5.90;;
66085;SDS011;52868;49.758;9.586;2022-11-15T06:49:02;20.90;;;5.60;;
66085;SDS011;52868;49.758;9.586;2022-11-15T06:51:28;17.88;;;6.47;;
66085;SDS011;52868;49.758;9.586;2022-11-15T06:53:53;17.23;;;6.57;;
66085;SDS011;52868;49.758;9.586;2022-11-15T06:56:19;13.80;;;6.10;;
66085;SDS011;52868;49.758;9.586;2022-11-15T06:58:45;16.92;;;5.22;;
66085;SDS011;52868;49.758;9.586;2022-11-15T07:01:11;15.63;;;6.30;;
66085;SDS011;52868;49.758;9.586;2022-11-15T07:03:39;13.95;;;5.75;;
66085;SDS011;52868;49.758;9.586;2022-11-15T07:06:06;14.63;;;5.55;;
66085;SDS011;52868;49.758;9.586;2022-11-15T07:08:32;13.07;;;5.47;;
66085;SDS011;52868;49.758;9.586;2022-11-15T07:10:59;15.13;;;5.68;;
66085;SDS011;52868;49.758;9.586;2022-11-15T07:13:27;11.40;;;5.15;;
66085;SDS011;52868;49.758;9.586;2022-11-15T07:15:53;12.48;;;5.95;;
66085;SDS011;52868;49.758;9.586;2022-11-15T07:18:19;14.20;;;5.50;;
66085;SDS011;52868;49.758;9.586;2022-11-15T07:20:45;14.43;;;5.38;;
66085;SDS011;52868;49.758;9.586;2022-11-15T07:23:10;10.27;;;5.00;;
66085;SDS011;52868;49.758;9.586;2022-11-15T07:25:36;10.18;;;4.70;;
66085;SDS011;52868;49.758;9.586;2022-11-15T07:28:02;12.73;;;5.00;;
66085;SDS011;52868;49.758;9.586;2022-11-15T07:30:28;11.40;;;5.18;;
66085;SDS011;52868;49.758;9.586;2022-11-15T07:32:57;10.77;;;5.55;;
66085;SDS011;52868;49.758;9.586;2022-11-15T07:35:28;12.45;;;5.90;;
66085;SDS011;52868;49.758;9.586;2022-11-15T07:37:58;11.07;;;5.20;;
66085;SDS011;52868;49.758;9.586;2022-11-15T07:40:28;11.05;;;5.10;;
66085;SDS011;52868;49.758;9.586;2022-11-15T07:43:01;13.98;;;5.30;;
66085;SDS011;52868;49.758;9.586;2022-11-15T07:45:28;9.93;;;5.30;;
66085;SDS011;52868;49.758;9.586;2022-11-15T07:47:54;9.77;;;5.20;;
66085;SDS011;52868;49.758;9.586;2022-11-15T07:50:21;11.05;;;5.10;;
66085;SDS011;52868;49.758;9.586;2022-11-15T07:52:57;12.35;;;4.80;;
66085;SDS011;52868;49.758;9.586;2022-11-15T07:55:24;10.98;;;4.93;;
66085;SDS011;52868;49.758;9.586;2022-11-15T07:57:52;8.55;;;4.75;;
66085;SDS011;52868;49.758;9.586;2022-11-15T08:00:18;16.05;;;5.00;;
66085;SDS011;52868;49.758;9.586;2022-11-15T08:02:44;12.60;;;5.28;;
66085;SDS011;52868;49.758;9.586;2022-11-15T08:05:10;13.68;;;5.60;;
66085;SDS011;52868;49.758;9.586;2022-11-15T08:07:36;11.48;;;4.75;;
66085;SDS011;52868;49.758;9.586;2022-11-15T08:10:03;11.68;;;5.05;;
66085;SDS011;52868;49.758;9.586;2022-11-15T08:12:31;8.55;;;4.85;;
66085;SDS011;52868;49.758;9.586;2022-11-15T08:14:57;9.40;;;4.43;;
66085;SDS011;52868;49.758;9.586;2022-11-15T08:17:23;8.38;;;4.35;;
66085;SDS011;52868;49.758;9.586;2022-11-15T08:19:49;8.43;;;4.57;;
66085;SDS011;52868;49.758;9.586;2022-11-15T08:22:15;10.23;;;4.40;;
66085;SDS011;52868;49.758;9.586;2022-11-15T08:24:41;11.48;;;5.10;;
66085;SDS011;52868;49.758;9.586;2022-11-15T08:27:06;11.70;;;5.00;;
66085;SDS011;52868;49.758;9.586;2022-11-15T08:29:46;8.63;;;4.13;;
66085;SDS011;52868;49.758;9.586;2022-11-15T08:32:15;10.25;;;4.60;;
66085;SDS011;52868;49.758;9.586;2022-11-15T08:34:42;8.18;;;4.72;;
66085;SDS011;52868;49.758;9.586;2022-11-15T08:37:08;10.18;;;4.55;;
66085;SDS011;52868;49.758;9.586;2022-11-15T08:39:34;8.35;;;4.03;;
66085;SDS011;52868;49.758;9.586;2022-11-15T08:41:59;9.73;;;4.25;;
66085;SDS011;52868;49.758;9.586;2022-11-15T08:44:25;8.68;;;3.83;;
66085;SDS011;52868;49.758;9.586;2022-11-15T08:46:50;7.15;;;3.72;;
66085;SDS011;52868;49.758;9.586;2022-11-15T08:49:16;7.47;;;3.85;;
66085;SDS011;52868;49.758;9.586;2022-11-15T08:51:42;8.13;;;4.22;;
66085;SDS011;52868;49.758;9.586;2022-11-15T08:54:07;9.82;;;4.18;;
66085;SDS011;52868;49.758;9.586;2022-11-15T08:56:33;6.25;;;3.65;;
66085;SDS011;52868;49.758;9.586;2022-11-15T08:58:59;6.68;;;4.00;;
66085;SDS011;52868;49.758;9.586;2022-11-15T09:01:24;6.25;;;3.53;;
66085;SDS011;52868;49.758;9.586;2022-11-15T09:03:50;9.93;;;4.95;;
66085;SDS011;52868;49.758;9.586;2022-11-15T09:06:16;9.30;;;4.72;;
66085;SDS011;52868;49.758;9.586;2022-11-15T09:08:41;9.80;;;4.45;;
66085;SDS011;52868;49.758;9.586;2022-11-15T09:11:08;10.88;;;5.22;;
66085;SDS011;52868;49.758;9.586;2022-11-15T09:13:35;9.50;;;4.55;;
66085;SDS011;52868;49.758;9.586;2022-11-15T09:16:04;9.75;;;4.60;;
66085;SDS011;52868;49.758;9.586;2022-11-15T09:18:30;13.65;;;5.57;;
66085;SDS011;52868;49.758;9.586;2022-11-15T09:20:57;13.85;;;5.55;;
66085;SDS011;52868;49.758;9.586;2022-11-15T09:23:23;15.82;;;6.35;;
66085;SDS011;52868;49.758;9.586;2022-11-15T09:25:49;15.82;;;6.38;;
66085;SDS011;52868;49.758;9.586;2022-11-15T09:28:15;10.15;;;5.30;;
66085;SDS011;52868;49.758;9.586;2022-11-15T09:30:41;11.10;;;5.50;;
66085;SDS011;52868;49.758;9.586;2022-11-15T09:33:07;11.30;;;5.57;;
66085;SDS011;52868;49.758;9.586;2022-11-15T09:35:34;8.10;;;4.45;;
66085;SDS011;52868;49.758;9.586;2022-11-15T09:37:59;10.73;;;4.70;;
66085;SDS011;52868;49.758;9.586;2022-11-15T09:40:25;6.72;;;3.75;;
66085;SDS011;52868;49.758;9.586;2022-11-15T09:46:03;10.23;;;4.60;;
66085;SDS011;52868;49.758;9.586;2022-11-15T09:48:50;8.15;;;4.10;;
66085;SDS011;52868;49.758;9.586;2022-11-15T09:51:38;8.35;;;4.50;;
66085;SDS011;52868;49.758;9.586;2022-11-15T09:57:10;7.05;;;3.75;;
66085;SDS011;52868;49.758;9.586;2022-11-15T10:05:18;11.05;;;4.68;;
66085;SDS011;52868;49.758;9.586;2022-11-15T10:07:52;9.63;;;4.25;;
66085;SDS011;52868;49.758;9.586;2022-11-15T10:10:39;9.65;;;4.10;;
66085;SDS011;52868;49.758;9.586;2022-11-15T10:13:20;9.32;;;4.43;;
66085;SDS011;52868;49.758;9.586;2022-11-15T10:15:49;9.23;;;4.10;;
66085;SDS011;52868;49.758;9.586;2022-11-15T10:20:51;8.00;;;3.95;;
66085;SDS011;52868;49.758;9.586;2022-11-15T10:23:24;8.57;;;4.15;;
66085;SDS011;52868;49.758;9.586;2022-11-15T10:25:54;10.73;;;4.03;;
66085;SDS011;52868;49.758;9.586;2022-11-15T10:28:25;7.40;;;4.18;;
66085;SDS011;52868;49.758;9.586;2022-11-15T10:30:54;10.02;;;3.50;;
66085;SDS011;52868;49.758;9.586;2022-11-15T10:41:17;7.38;;;3.80;;
66085;SDS011;52868;49.758;9.586;2022-11-15T10:46:33;8.80;;;3.97;;
66085;SDS011;52868;49.758;9.586;2022-11-15T10:49:11;8.68;;;3.53;;
66085;SDS011;52868;49.758;9.586;2022-11-15T10:54:43;7.35;;;4.22;;
66085;SDS011;52868;49.758;9.586;2022-11-15T10:57:15;7.13;;;3.72;;
66085;SDS011;52868;49.758;9.586;2022-11-15T11:00:03;7.53;;;3.80;;
66085;SDS011;52868;49.758;9.586;2022-11-15T11:05:37;5.93;;;3.33;;
66085;SDS011;52868;49.758;9.586;2022-11-15T11:10:39;14.98;;;3.45;;
66085;SDS011;52868;49.758;9.586;2022-11-15T11:13:39;8.55;;;3.40;;
66085;SDS011;52868;49.758;9.586;2022-11-15T11:21:10;6.75;;;3.45;;
66085;SDS011;52868;49.758;9.586;2022-11-15T11:23:48;8.43;;;3.40;;
66085;SDS011;52868;49.758;9.586;2022-11-15T11:26:32;8.55;;;3.45;;
66085;SDS011;52868;49.758;9.586;2022-11-15T11:31:50;8.02;;;3.65;;
66085;SDS011;52868;49.758;9.586;2022-11-15T11:37:12;7.80;;;3.80;;
66085;SDS011;52868;49.758;9.586;2022-11-15T11:45:19;10.93;;;3.60;;
66085;SDS011;52868;49.758;9.586;2022-11-15T11:50:30;10.35;;;3.60;;
66085;SDS011;52868;49.758;9.586;2022-11-15T11:55:43;6.28;;;3.60;;
66085;SDS011;52868;49.758;9.586;2022-11-15T11:58:14;12.10;;;3.92;;
66085;SDS011;52868;49.758;9.586;2022-11-15T12:00:55;6.38;;;3.17;;
66085;SDS011;52868;49.758;9.586;2022-11-15T12:06:02;7.63;;;3.47;;
66085;SDS011;52868;49.758;9.586;2022-11-15T12:14:51;8.13;;;3.38;;
66085;SDS011;52868;49.758;9.586;2022-11-15T12:17:20;6.80;;;3.17;;
66085;SDS011;52868;49.758;9.586;2022-11-15T12:19:50;6.95;;;3.40;;
66085;SDS011;52868;49.758;9.586;2022-11-15T12:25:07;8.02;;;3.13;;
66085;SDS011;52868;49.758;9.586;2022-11-15T12:27:47;9.20;;;4.13;;
66085;SDS011;52868;49.758;9.586;2022-11-15T12:30:45;6.90;;;3.35;;
66085;SDS011;52868;49.758;9.586;2022-11-15T12:33:41;8.10;;;3.75;;
66085;SDS011;52868;49.758;9.586;2022-11-15T12:41:26;7.07;;;3.28;;
66085;SDS011;52868;49.758;9.586;2022-11-15T12:43:56;6.85;;;3.13;;
66085;SDS011;52868;49.758;9.586;2022-11-15T12:48:59;7.50;;;3.22;;
66085;SDS011;52868;49.758;9.586;2022-11-15T12:52:09;7.32;;;3.70;;
66085;SDS011;52868;49.758;9.586;2022-11-15T13:02:20;8.23;;;3.60;;
66085;SDS011;52868;49.758;9.586;2022-11-15T13:22:50;7.18;;;3.28;;
66085;SDS011;52868;49.758;9.586;2022-11-15T13:30:49;6.15;;;2.90;;
66085;SDS011;52868;49.758;9.586;2022-11-15T13:33:23;7.93;;;3.47;;
66085;SDS011;52868;49.758;9.586;2022-11-15T13:35:56;6.38;;;3.53;;
66085;SDS011;52868;49.758;9.586;2022-11-15T13:38:26;7.70;;;3.15;;
66085;SDS011;52868;49.758;9.586;2022-11-15T13:40:53;6.87;;;3.77;;
66085;SDS011;52868;49.758;9.586;2022-11-15T13:43:31;7.10;;;3.50;;
66085;SDS011;52868;49.758;9.586;2022-11-15T13:46:07;6.85;;;3.33;;
66085;SDS011;52868;49.758;9.586;2022-11-15T13:48:43;11.85;;;3.88;;
66085;SDS011;52868;49.758;9.586;2022-11-15T13:51:25;8.73;;;3.45;;
66085;SDS011;52868;49.758;9.586;2022-11-15T13:53:56;7.18;;;3.70;;
66085;SDS011;52868;49.758;9.586;2022-11-15T13:56:28;8.52;;;4.25;;
66085;SDS011;52868;49.758;9.586;2022-11-15T13:58:56;9.77;;;4.15;;
66085;SDS011;52868;49.758;9.586;2022-11-15T14:01:22;9.23;;;3.85;;
66085;SDS011;52868;49.758;9.586;2022-11-15T14:03:56;8.65;;;4.43;;
66085;SDS011;52868;49.758;9.586;2022-11-15T14:06:24;7.25;;;3.53;;
66085;SDS011;52868;49.758;9.586;2022-11-15T14:11:23;8.30;;;3.95;;
66085;SDS011;52868;49.758;9.586;2022-11-15T14:16:52;9.05;;;3.75;;
66085;SDS011;52868;49.758;9.586;2022-11-15T14:24:46;9.98;;;4.00;;
66085;SDS011;52868;49.758;9.586;2022-11-15T14:27:30;8.00;;;3.85;;
66085;SDS011;52868;49.758;9.586;2022-11-15T14:29:57;8.35;;;3.83;;
66085;SDS011;52868;49.758;9.586;2022-11-15T14:32:23;11.07;;;4.38;;
66085;SDS011;52868;49.758;9.586;2022-11-15T14:35:01;7.35;;;3.88;;
66085;SDS011;52868;49.758;9.586;2022-11-15T14:37:29;6.63;;;3.42;;
66085;SDS011;52868;49.758;9.586;2022-11-15T14:39:59;11.73;;;3.55;;
66085;SDS011;52868;49.758;9.586;2022-11-15T14:42:25;10.38;;;4.05;;
66085;SDS011;52868;49.758;9.586;2022-11-15T14:44:51;9.48;;;3.92;;
66085;SDS011;52868;49.758;9.586;2022-11-15T14:47:17;7.28;;;3.60;;
66085;SDS011;52868;49.758;9.586;2022-11-15T14:49:43;6.35;;;3.13;;
66085;SDS011;52868;49.758;9.586;2022-11-15T14:52:25;7.07;;;3.45;;
66085;SDS011;52868;49.758;9.586;2022-11-15T14:54:53;7.28;;;3.63;;
66085;SDS011;52868;49.758;9.586;2022-11-15T14:57:20;9.27;;;3.88;;
66085;SDS011;52868;49.758;9.586;2022-11-15T14:59:46;12.55;;;4.55;;
66085;SDS011;52868;49.758;9.586;2022-11-15T15:02:16;8.82;;;3.40;;
66085;SDS011;52868;49.758;9.586;2022-11-15T15:04:44;11.95;;;4.05;;
66085;SDS011;52868;49.758;9.586;2022-11-15T15:07:09;11.45;;;4.07;;
66085;SDS011;52868;49.758;9.586;2022-11-15T15:09:35;11.77;;;4.40;;
66085;SDS011;52868;49.758;9.586;2022-11-15T15:12:01;8.25;;;3.88;;
66085;SDS011;52868;49.758;9.586;2022-11-15T15:14:26;7.40;;;3.22;;
66085;SDS011;52868;49.758;9.586;2022-11-15T15:16:52;10.07;;;4.10;;
66085;SDS011;52868;49.758;9.586;2022-11-15T15:19:17;9.13;;;4.47;;
66085;SDS011;52868;49.758;9.586;2022-11-15T15:21:43;15.10;;;4.60;;
66085;SDS011;52868;49.758;9.586;2022-11-15T15:24:14;10.35;;;4.55;;
66085;SDS011;52868;49.758;9.586;2022-11-15T15:26:40;11.00;;;4.20;;
66085;SDS011;52868;49.758;9.586;2022-11-15T15:29:06;12.98;;;4.40;;
66085;SDS011;52868;49.758;9.586;2022-11-15T15:31:33;13.93;;;4.95;;
66085;SDS011;52868;49.758;9.586;2022-11-15T15:33:59;16.42;;;5.38;;
66085;SDS011;52868;49.758;9.586;2022-11-15T15:36:24;17.02;;;5.63;;
66085;SDS011;52868;49.758;9.586;2022-11-15T15:38:50;19.67;;;5.82;;
66085;SDS011;52868;49.758;9.586;2022-11-15T15:41:16;16.02;;;6.28;;
66085;SDS011;52868;49.758;9.586;2022-11-15T15:43:42;26.55;;;9.75;;
66085;SDS011;52868;49.758;9.586;2022-11-15T15:46:12;30.83;;;11.27;;
66085;SDS011;52868;49.758;9.586;2022-11-15T15:48:40;26.55;;;9.90;;
66085;SDS011;52868;49.758;9.586;2022-11-15T15:51:06;25.25;;;9.48;;
66085;SDS011;52868;49.758;9.586;2022-11-15T15:53:31;28.88;;;9.88;;
66085;SDS011;52868;49.758;9.586;2022-11-15T15:55:57;30.63;;;8.85;;
66085;SDS011;52868;49.758;9.586;2022-11-15T15:58:23;23.20;;;9.07;;
66085;SDS011;52868;49.758;9.586;2022-11-15T16:00:48;29.42;;;8.98;;
66085;SDS011;52868;49.758;9.586;2022-11-15T16:03:14;24.33;;;8.32;;
66085;SDS011;52868;49.758;9.586;2022-11-15T16:05:40;19.92;;;7.43;;
66085;SDS011;52868;49.758;9.586;2022-11-15T16:08:05;20.30;;;7.88;;
66085;SDS011;52868;49.758;9.586;2022-11-15T16:10:34;14.15;;;7.00;;
66085;SDS011;52868;49.758;9.586;2022-11-15T16:13:01;23.00;;;7.03;;
66085;SDS011;52868;49.758;9.586;2022-11-15T16:15:29;22.08;;;5.32;;
66085;SDS011;52868;49.758;9.586;2022-11-15T16:17:56;13.73;;;5.50;;
66085;SDS011;52868;49.758;9.586;2022-11-15T16:22:49;15.57;;;4.97;;
66085;SDS011;52868;49.758;9.586;2022-11-15T16:25:14;10.60;;;4.55;;
66085;SDS011;52868;49.758;9.586;2022-11-15T16:27:40;9.02;;;4.00;;
66085;SDS011;52868;49.758;9.586;2022-11-15T16:30:16;11.82;;;4.70;;
66085;SDS011;52868;49.758;9.586;2022-11-15T16:32:44;11.60;;;4.68;;
66085;SDS011;52868;49.758;9.586;2022-11-15T16:35:13;11.27;;;4.70;;
66085;SDS011;52868;49.758;9.586;2022-11-15T16:37:41;8.73;;;3.95;;
66085;SDS011;52868;49.758;9.586;2022-11-15T16:40:21;10.50;;;3.92;;
66085;SDS011;52868;49.758;9.586;2022-11-15T16:42:53;7.32;;;3.63;;
66085;SDS011;52868;49.758;9.586;2022-11-15T16:45:20;8.00;;;4.05;;
66085;SDS011;52868;49.758;9.586;2022-11-15T16:47:46;9.57;;;4.10;;
66085;SDS011;52868;49.758;9.586;2022-11-15T16:50:31;16.67;;;4.05;;
66085;SDS011;52868;49.758;9.586;2022-11-15T16:53:03;7.38;;;3.60;;
66085;SDS011;52868;49.758;9.586;2022-11-15T16:55:29;8.75;;;3.97;;
66085;SDS011;52868;49.758;9.586;2022-11-15T16:57:55;8.68;;;3.33;;
66085;SDS011;52868;49.758;9.586;2022-11-15T17:00:22;6.95;;;3.00;;
66085;SDS011;52868;49.758;9.586;2022-11-15T17:02:49;16.05;;;4.30;;
66085;SDS011;52868;49.758;9.586;2022-11-15T17:05:16;6.18;;;3.20;;
66085;SDS011;52868;49.758;9.586;2022-11-15T17:07:49;6.82;;;2.97;;
66085;SDS011;52868;49.758;9.586;2022-11-15T17:10:20;7.38;;;3.45;;
66085;SDS011;52868;49.758;9.586;2022-11-15T17:12:46;6.82;;;3.08;;
66085;SDS011;52868;49.758;9.586;2022-11-15T17:15:13;6.78;;;3.15;;
66085;SDS011;52868;49.758;9.586;2022-11-15T17:17:39;7.45;;;3.17;;
66085;SDS011;52868;49.758;9.586;2022-11-15T17:20:05;6.10;;;2.90;;
66085;SDS011;52868;49.758;9.586;2022-11-15T17:22:37;9.90;;;3.25;;
66085;SDS011;52868;49.758;9.586;2022-11-15T17:25:03;8.13;;;3.63;;